METAR Data
IDs: Format: Raw Decoded Include TAF

Data at: 1100 UTC 16 Feb 2019

PANV 160850Z AUTO 03014KT 3SM -SN BR OVC016 M15/M16 A2985 RMK AO2 P0000 411441178 FZRANO
PANV 160056Z AUTO 05014G21KT 8SM -SN BKN100 M15/M18 A2986 RMK AO2 SNB18 SLP136 P0000 T11501178 FZRANO
PANV 151338Z AUTO 04011KT 10SM SCT010 OVC019 M18/M20 A3007 RMK AO2 FZRANO
PANV 150856Z AUTO 04010KT 9SM -SN OVC016 M18/M20 A3004 RMK AO2 SNE03B32 SLP196 P0000 60000 T11781200 411331178 53006 FZRANO
PANV 150756Z AUTO 04009KT 9SM -SN OVC020 M17/M19 A3004 RMK AO2 SLP195 P0000 T11721194 FZRANO
PANV 150656Z AUTO 05013KT 9SM -SN OVC028 M17/M19 A3001 RMK AO2 SLP187 P0000 T11721194 FZRANO
PANV 150556Z AUTO 04011KT 7SM -SN SCT028 OVC036 M17/M19 A3002 RMK AO2 SLP190 P0000 60000 T11721194 11156 21172 53004 FZRANO
PANV 150540Z AUTO 05011KT 6SM -SN BR SCT020 SCT028 OVC034 M17/M19 A3002 RMK AO2 P0000 FZRANO
PANV 150415Z AUTO 05011KT 6SM -SN BR SCT030 BKN060 OVC090 M17/M19 A3001 RMK AO2 P0000 FZRANO
PANV 150406Z AUTO 05012KT 4SM -SN BR BKN028 OVC035 M17/M19 A3001 RMK AO2 P0000 FZRANO
PANV 150356Z AUTO 04011KT 2SM -SN BR BKN028 OVC033 M17/M19 A3001 RMK AO2 SLP187 P0000 T11671189 FZRANO
PANV 150335Z AUTO 04011KT 2SM -SN BR BKN028 OVC035 M17/M18 A3001 RMK AO2 P0000 FZRANO
PANV 150256Z AUTO 05011KT 3SM -SN BR SCT024 BKN047 OVC055 M16/M18 A3001 RMK AO2 SLP185 P0000 60000 T11611183 58004 FZRANO
PANV 150224Z AUTO 05013KT 3/4SM -SN BR BKN015 OVC022 M16/M18 A3000 RMK AO2 P0000 FZRANO
PANV 150207Z AUTO 04013KT 3/4SM -SN BKN015 BKN021 OVC027 M16/M18 A3001 RMK AO2 P0000 FZRANO
PANV 150056Z AUTO 04010KT 10SM BKN060 OVC070 M16/M18 A3002 RMK AO2 SLP190 T11561183 FZRANO